Airfield :
LOGIN :

Register | Disclaimer

   EN    FR    IT 

 










Legend :    VFR   Marginal VFR   IFR   Intensive IFR   Very Intensive IFR
Visi :
Ceiling :
>= 8 km
>= 3000ft
5 to 8 km
1000 to 3000 ft
1500m to 5 km
500 to 1000 ft
800 to 1500m
200 to 500 ft
< 800m
< 200 ft
Symbols :   Thunderstorms  Fog  Heavy snow  Heavy precipitations  Wind > 20 kt
SIGMETs :     Misc.  Thunderstorms  Icing  Turbulence  Mountain Waves  Volcanic Ashes






- Airport Elevation : 3006 ft
- IATA code : LEN


LELN - Leon

CURRENT METAR :
  • 171900Z 29005KT 260V320 9999 FEW050 05/M00 Q1031

EXPIRED METARs :
  • 171830Z 31005KT 9999 FEW050 06/M00 Q1030
  • 171800Z 29006KT 260V320 9999 FEW050 07/M01 Q1029
  • 171730Z 29009KT 260V330 9999 FEW050 09/M02 Q1029
  • 171700Z 27010KT 9999 FEW050 10/M02 Q1029
  • 171630Z 26010KT 210V290 9999 FEW050 11/M02 Q1028

TAF TAF LELN
Valid from the 17 at 18:00 until the 18 at 03:00 UTC


171700Z 1718/1803 30010KT 9999 FEW050
BECMG 1720/1721 02008KT FEW035



MET'MAP, your aeronautical weather chart ! - Copyright ORBIFLY December 2007 - Disclaimer

ORBIFLY MET'MAP TEAM :

Programming & Development : Alexandra Zaïnal
Concept & original design : Baudouin d'Aumeries
Assistance for programming : Marc-Olivier Méhu
Technical & hardware support : Manuel Goepfert

Contact : metmap@orbifly.com




SOURCES & CREDITS :

   NOAA